createdAt,value
2023-01-13T00:01:14.131Z,2.40
2023-01-13T00:03:41.612Z,2.30
2023-01-13T00:06:12.548Z,2.23
2023-01-13T00:08:39.107Z,2.37
2023-01-13T00:11:05.733Z,2.90
2023-01-13T00:13:33.682Z,2.07
2023-01-13T00:16:05.152Z,2.10
2023-01-13T00:18:33.099Z,4.37
2023-01-13T00:21:21.119Z,6.27
2023-01-13T00:23:48.307Z,5.43
2023-01-13T00:26:17.642Z,4.30
2023-01-13T00:28:44.224Z,2.70
2023-01-13T00:31:13.680Z,7.77
2023-01-13T00:33:40.791Z,2.07
2023-01-13T00:36:10.624Z,3.50
2023-01-13T00:38:38.893Z,1.93
2023-01-13T00:41:07.940Z,5.13
2023-01-13T00:43:36.186Z,4.37
2023-01-13T00:46:05.008Z,4.17
2023-01-13T00:48:32.692Z,3.30
2023-01-13T00:51:02.060Z,3.13
2023-01-13T00:53:29.917Z,2.20
2023-01-13T00:56:04.597Z,3.77
2023-01-13T00:58:33.135Z,1.50
2023-01-13T01:01:04.465Z,2.33
2023-01-13T01:03:31.364Z,2.47
2023-01-13T01:06:05.362Z,2.17
2023-01-13T01:08:32.070Z,2.20
2023-01-13T01:11:13.595Z,6.77
2023-01-13T01:13:40.628Z,5.33
2023-01-13T01:16:09.382Z,3.13
2023-01-13T01:18:38.199Z,3.87
2023-01-13T01:21:06.050Z,5.47
2023-01-13T01:23:33.692Z,4.83
2023-01-13T01:26:05.986Z,5.20
2023-01-13T01:28:33.607Z,6.00
2023-01-13T01:31:00.420Z,11.73
2023-01-13T01:33:26.959Z,5.20
2023-01-13T01:35:54.724Z,5.93
2023-01-13T01:38:23.350Z,8.57
2023-01-13T01:40:50.042Z,13.07
2023-01-13T01:43:37.471Z,4.27
2023-01-13T01:46:04.732Z,7.63
2023-01-13T01:48:38.178Z,11.53
2023-01-13T01:51:09.184Z,5.83
2023-01-13T01:53:35.898Z,5.67
2023-01-13T01:56:03.510Z,8.73
2023-01-13T01:58:37.570Z,5.90
2023-01-13T02:01:04.574Z,7.10
2023-01-13T02:03:31.367Z,6.70
2023-01-13T02:05:58.044Z,6.83
2023-01-13T02:08:25.089Z,6.87
2023-01-13T02:10:54.242Z,5.27
2023-01-13T02:13:22.622Z,7.20
2023-01-13T02:15:58.414Z,3.60
2023-01-13T02:18:44.289Z,7.37
2023-01-13T02:21:32.772Z,5.37
2023-01-13T02:24:42.622Z,9.93
2023-01-13T02:27:44.150Z,5.87
2023-01-13T02:30:59.304Z,15.00
2023-01-13T02:33:34.592Z,8.50
2023-01-13T02:36:27.160Z,10.80
2023-01-13T02:39:00.941Z,11.97
2023-01-13T02:41:52.750Z,9.13
2023-01-13T02:44:25.567Z,11.40
2023-01-13T02:46:59.556Z,10.27
2023-01-13T02:49:30.323Z,11.23
2023-01-13T02:52:06.143Z,14.47
2023-01-13T02:54:35.368Z,18.43
2023-01-13T02:57:03.520Z,9.67
2023-01-13T02:59:31.500Z,9.23
2023-01-13T03:01:59.796Z,9.20
2023-01-13T03:04:48.255Z,12.87
2023-01-13T03:07:41.243Z,9.07
2023-01-13T03:10:22.380Z,14.30
2023-01-13T03:13:20.332Z,13.07
2023-01-13T03:16:11.916Z,9.63
2023-01-13T03:19:05.712Z,11.70
2023-01-13T03:21:52.215Z,5.30
2023-01-13T03:24:21.344Z,11.70
2023-01-13T03:27:15.095Z,11.53
2023-01-13T03:29:58.848Z,17.97
2023-01-13T03:32:30.960Z,20.43
2023-01-13T03:35:07.478Z,13.00
2023-01-13T03:37:38.555Z,12.90
2023-01-13T03:40:13.983Z,10.53
2023-01-13T03:43:03.207Z,7.07
2023-01-13T03:45:32.747Z,14.27
2023-01-13T03:48:01.099Z,26.80
2023-01-13T03:50:37.233Z,16.87
2023-01-13T03:53:10.322Z,20.00
2023-01-13T03:55:43.868Z,20.13
2023-01-13T03:58:27.625Z,18.03
2023-01-13T04:01:05.825Z,25.43
2023-01-13T04:03:40.799Z,19.03
2023-01-13T04:06:18.355Z,18.50
2023-01-13T04:08:52.840Z,18.97
2023-01-13T04:11:27.992Z,18.80
2023-01-13T04:13:56.065Z,17.50
2023-01-13T04:16:22.664Z,21.43
2023-01-13T04:18:50.055Z,17.23
2023-01-13T04:21:16.408Z,16.57
2023-01-13T04:23:42.888Z,19.20
2023-01-13T04:26:09.213Z,18.70
2023-01-13T04:28:35.619Z,21.10
2023-01-13T04:31:01.969Z,15.00
2023-01-13T04:33:28.502Z,13.43
2023-01-13T04:35:55.135Z,22.87
2023-01-13T04:38:22.045Z,10.27
2023-01-13T04:40:48.660Z,13.47
2023-01-13T04:43:15.984Z,22.97
2023-01-13T04:45:42.973Z,15.10
2023-01-13T04:48:10.106Z,13.00
2023-01-13T04:50:36.637Z,18.07
2023-01-13T04:53:03.279Z,19.10
2023-01-13T04:55:29.822Z,15.97
2023-01-13T04:58:01.975Z,23.23
2023-01-13T05:00:28.333Z,15.70
2023-01-13T05:02:54.875Z,16.67
2023-01-13T05:05:21.216Z,16.60
2023-01-13T05:07:47.580Z,23.77
2023-01-13T05:10:14.424Z,15.50
2023-01-13T05:12:59.698Z,15.40
2023-01-13T05:15:44.643Z,13.67
2023-01-13T05:18:11.704Z,22.67
2023-01-13T05:20:38.303Z,15.83
2023-01-13T05:23:23.606Z,17.13
2023-01-13T05:25:50.053Z,14.63
2023-01-13T05:28:16.518Z,12.73
2023-01-13T05:30:45.977Z,19.23
2023-01-13T05:33:17.973Z,18.50
2023-01-13T05:35:46.005Z,15.17
2023-01-13T05:38:13.582Z,17.00
2023-01-13T05:41:06.882Z,19.00
2023-01-13T05:43:34.812Z,19.60
2023-01-13T05:46:05.788Z,22.77
2023-01-13T05:48:34.875Z,17.60
2023-01-13T05:51:03.157Z,16.80
2023-01-13T05:53:29.839Z,29.80
2023-01-13T05:55:56.500Z,18.30
2023-01-13T05:58:25.786Z,20.63
2023-01-13T06:00:52.621Z,15.53
2023-01-13T06:03:20.176Z,16.77
2023-01-13T06:05:47.599Z,19.13
2023-01-13T06:08:14.130Z,13.73
2023-01-13T06:10:40.508Z,17.60
2023-01-13T06:13:07.040Z,14.53
2023-01-13T06:15:33.406Z,20.93
2023-01-13T06:18:02.609Z,14.50
2023-01-13T06:20:29.037Z,23.20
2023-01-13T06:22:55.610Z,15.63
2023-01-13T06:25:34.077Z,15.63
2023-01-13T06:28:00.638Z,21.17
2023-01-13T06:30:31.376Z,14.70
2023-01-13T06:32:59.480Z,22.23
2023-01-13T06:35:31.793Z,21.20
2023-01-13T06:38:01.447Z,14.23
2023-01-13T06:40:28.085Z,11.60
2023-01-13T06:43:16.542Z,21.53
2023-01-13T06:45:50.905Z,12.47
2023-01-13T06:48:18.853Z,18.60
2023-01-13T06:50:45.218Z,16.87
2023-01-13T06:53:11.598Z,18.13
2023-01-13T06:55:37.964Z,18.97
2023-01-13T06:58:04.808Z,12.87
2023-01-13T07:00:32.667Z,22.43
2023-01-13T07:03:12.587Z,19.53
2023-01-13T07:05:40.214Z,14.40
2023-01-13T07:08:07.163Z,26.80
2023-01-13T07:10:34.829Z,17.40
2023-01-13T07:13:21.889Z,11.40
2023-01-13T07:15:59.402Z,18.23
2023-01-13T07:18:27.667Z,14.30
2023-01-13T07:20:56.054Z,13.47
2023-01-13T07:23:22.761Z,23.17
2023-01-13T07:25:49.262Z,17.17
2023-01-13T07:28:15.866Z,15.33
2023-01-13T07:30:42.258Z,16.80
2023-01-13T07:33:08.609Z,20.27
2023-01-13T07:35:35.178Z,14.80
2023-01-13T07:38:01.503Z,15.03
2023-01-13T07:40:27.914Z,14.20
2023-01-13T07:43:13.042Z,21.33
2023-01-13T07:45:39.545Z,20.70
2023-01-13T07:48:06.016Z,21.30
2023-01-13T07:50:32.462Z,19.37
2023-01-13T07:52:59.007Z,10.17
2023-01-13T07:55:25.465Z,14.23
2023-01-13T07:57:51.790Z,16.03
2023-01-13T08:00:18.748Z,10.63
2023-01-13T08:02:45.107Z,17.10
2023-01-13T08:05:11.551Z,21.03
2023-01-13T08:07:37.877Z,21.87
2023-01-13T08:10:04.533Z,9.47
2023-01-13T08:12:51.818Z,17.33
2023-01-13T08:15:22.088Z,12.97
2023-01-13T08:17:48.408Z,17.40
2023-01-13T08:20:15.074Z,10.03
2023-01-13T08:22:41.445Z,19.30
2023-01-13T08:25:08.315Z,20.00
2023-01-13T08:27:34.659Z,15.67
2023-01-13T08:30:01.077Z,10.10
2023-01-13T08:32:27.474Z,13.90
2023-01-13T08:34:53.995Z,18.53
2023-01-13T08:37:20.378Z,20.20
2023-01-13T08:39:46.775Z,18.37
2023-01-13T08:42:13.111Z,6.17
2023-01-13T08:44:39.482Z,17.77
2023-01-13T08:47:06.039Z,14.00
2023-01-13T08:49:32.503Z,15.70
2023-01-13T08:51:58.823Z,11.67
2023-01-13T08:54:25.234Z,31.00
2023-01-13T08:56:51.661Z,13.30
2023-01-13T08:59:19.760Z,17.27
2023-01-13T09:01:46.401Z,12.77
2023-01-13T09:04:19.793Z,17.23
2023-01-13T09:06:47.233Z,12.60
2023-01-13T09:09:13.709Z,13.80
2023-01-13T09:12:00.988Z,9.30
2023-01-13T09:14:32.057Z,6.60
2023-01-13T09:16:59.561Z,11.83
2023-01-13T09:19:27.050Z,12.50
2023-01-13T09:21:54.449Z,8.97
2023-01-13T09:24:21.208Z,12.03
2023-01-13T09:26:48.759Z,10.70
2023-01-13T09:29:15.545Z,14.53
2023-01-13T09:31:44.209Z,11.97
2023-01-13T09:34:37.973Z,11.73
2023-01-13T09:37:06.327Z,12.47
2023-01-13T09:39:33.728Z,10.07
2023-01-13T09:42:25.484Z,10.10
2023-01-13T09:45:05.835Z,8.57
2023-01-13T09:47:40.965Z,6.33
2023-01-13T09:50:23.776Z,12.80
2023-01-13T09:52:50.565Z,14.50
2023-01-13T09:55:22.628Z,11.33
2023-01-13T09:57:49.085Z,12.23
2023-01-13T10:00:24.059Z,6.50
2023-01-13T10:03:15.639Z,7.40
2023-01-13T10:05:50.747Z,7.20
2023-01-13T10:08:24.554Z,7.67
2023-01-13T10:10:59.641Z,14.40
2023-01-13T10:13:30.968Z,8.07
2023-01-13T10:16:22.591Z,7.77
2023-01-13T10:19:29.401Z,9.70
2023-01-13T10:22:43.555Z,10.83
2023-01-13T10:25:22.211Z,9.87
2023-01-13T10:27:50.674Z,7.90
2023-01-13T10:30:32.192Z,9.53
2023-01-13T10:33:01.344Z,7.00
2023-01-13T10:36:05.079Z,5.30
2023-01-13T10:38:34.439Z,15.37
2023-01-13T10:41:03.650Z,13.47
2023-01-13T10:43:30.705Z,5.40
2023-01-13T10:46:06.187Z,6.20
2023-01-13T10:48:51.181Z,11.00
2023-01-13T10:51:27.004Z,8.90
2023-01-13T10:54:15.362Z,7.23
2023-01-13T10:56:44.862Z,15.23
2023-01-13T10:59:24.823Z,8.87
2023-01-13T11:02:24.838Z,7.40
2023-01-13T11:05:02.966Z,6.70
2023-01-13T11:07:50.357Z,9.93
2023-01-13T11:10:27.424Z,6.47
2023-01-13T11:13:01.152Z,7.57
2023-01-13T11:15:43.512Z,8.80
2023-01-13T11:18:37.696Z,9.93
2023-01-13T11:21:14.584Z,16.57
2023-01-13T11:23:48.836Z,10.37
2023-01-13T11:26:23.789Z,9.67
2023-01-13T11:29:08.991Z,7.80
2023-01-13T11:31:43.677Z,11.23
2023-01-13T11:34:39.266Z,7.03
2023-01-13T11:37:27.842Z,6.63
2023-01-13T11:40:01.477Z,11.60
2023-01-13T11:42:36.642Z,9.20
2023-01-13T11:45:28.672Z,6.90
2023-01-13T11:47:58.217Z,9.60
2023-01-13T11:50:41.171Z,12.00
2023-01-13T11:53:21.298Z,7.80
2023-01-13T11:56:20.029Z,5.47
2023-01-13T11:59:24.063Z,7.37
2023-01-13T12:02:23.681Z,15.43
2023-01-13T12:05:01.840Z,4.80
2023-01-13T12:07:47.116Z,9.70
2023-01-13T12:10:41.496Z,15.20
2023-01-13T12:13:26.796Z,14.40
2023-01-13T12:16:07.964Z,9.73
2023-01-13T12:18:55.700Z,5.63
2023-01-13T12:21:29.650Z,9.10
2023-01-13T12:24:21.219Z,9.23
2023-01-13T12:26:55.599Z,7.80
2023-01-13T12:29:30.590Z,8.10
2023-01-13T12:31:59.953Z,7.23
2023-01-13T12:34:49.712Z,5.33
2023-01-13T12:37:37.205Z,17.50
2023-01-13T12:40:46.943Z,8.77
2023-01-13T12:43:42.806Z,11.33
2023-01-13T12:46:21.337Z,9.30
2023-01-13T12:48:57.247Z,12.63
2023-01-13T12:51:55.988Z,9.83
2023-01-13T12:54:37.591Z,4.23
2023-01-13T12:57:16.315Z,10.00
2023-01-13T13:00:05.753Z,11.93
2023-01-13T13:02:39.986Z,5.50
2023-01-13T13:05:15.643Z,12.77
2023-01-13T13:07:46.589Z,5.47
2023-01-13T13:10:34.085Z,8.13
2023-01-13T13:13:18.010Z,5.50
2023-01-13T13:15:49.421Z,7.43
2023-01-13T13:18:19.502Z,3.73
2023-01-13T13:20:57.064Z,11.57
2023-01-13T13:23:39.335Z,7.80
2023-01-13T13:26:24.680Z,6.20
2023-01-13T13:29:21.884Z,6.90
2023-01-13T13:32:14.085Z,12.20
2023-01-13T13:35:09.766Z,4.93
2023-01-13T13:38:16.473Z,9.50
2023-01-13T13:41:04.803Z,8.83
2023-01-13T13:43:56.541Z,4.67
2023-01-13T13:46:46.968Z,5.47
2023-01-13T13:49:20.036Z,8.47
2023-01-13T13:51:54.428Z,7.67
2023-01-13T13:54:22.727Z,13.37
2023-01-13T13:56:50.690Z,13.90
2023-01-13T13:59:24.557Z,5.70
2023-01-13T14:02:01.604Z,8.40
2023-01-13T14:04:31.215Z,10.30
2023-01-13T14:07:00.694Z,7.03
2023-01-13T14:09:39.491Z,6.97
2023-01-13T14:12:17.519Z,11.43
2023-01-13T14:14:44.556Z,7.17
2023-01-13T14:17:24.339Z,9.13
2023-01-13T14:19:59.271Z,8.57
2023-01-13T14:22:25.917Z,9.20
2023-01-13T14:24:57.550Z,12.07
2023-01-13T14:27:29.156Z,8.00
2023-01-13T14:29:58.791Z,9.50
2023-01-13T14:32:35.212Z,9.07
2023-01-13T14:35:01.977Z,15.90
2023-01-13T14:37:28.251Z,3.33
2023-01-13T14:39:54.730Z,6.00
2023-01-13T14:42:22.080Z,7.07
2023-01-13T14:44:51.771Z,10.17
2023-01-13T14:47:27.821Z,11.60
2023-01-13T14:50:06.361Z,7.47
2023-01-13T14:52:48.399Z,16.47
2023-01-13T14:55:30.029Z,9.00
2023-01-13T14:58:21.245Z,6.53
2023-01-13T15:00:48.777Z,8.90
2023-01-13T15:03:17.937Z,11.83
2023-01-13T15:05:52.377Z,9.93
2023-01-13T15:08:29.192Z,6.63
2023-01-13T15:11:01.054Z,10.17
2023-01-13T15:13:35.237Z,14.03
2023-01-13T15:16:05.702Z,7.73
2023-01-13T15:18:32.508Z,3.57
2023-01-13T15:20:58.876Z,8.97
2023-01-13T15:23:25.266Z,5.13
2023-01-13T15:25:51.782Z,2.17
2023-01-13T15:28:21.959Z,3.30
2023-01-13T15:30:49.625Z,3.23
2023-01-13T15:33:16.955Z,5.90
2023-01-13T15:35:49.095Z,2.80
2023-01-13T15:38:19.598Z,6.43
2023-01-13T15:40:47.538Z,4.10
2023-01-13T15:43:34.325Z,5.67
2023-01-13T15:46:21.143Z,3.77
2023-01-13T15:48:50.124Z,3.97
2023-01-13T15:51:21.176Z,2.60
2023-01-13T15:53:47.524Z,6.20
2023-01-13T15:56:25.341Z,4.90
2023-01-13T15:58:52.339Z,5.10
2023-01-13T16:01:18.806Z,3.10
2023-01-13T16:03:45.253Z,4.60
2023-01-13T16:06:18.294Z,6.13
2023-01-13T16:08:44.749Z,5.03
2023-01-13T16:11:12.139Z,4.83
2023-01-13T16:13:38.791Z,4.60
2023-01-13T16:16:17.931Z,2.43
2023-01-13T16:18:44.627Z,6.10
2023-01-13T16:21:12.998Z,3.40
2023-01-13T16:23:39.778Z,10.53
2023-01-13T16:26:13.088Z,8.87
2023-01-13T16:28:39.698Z,10.97
2023-01-13T16:31:23.525Z,5.60
2023-01-13T16:33:50.345Z,3.70
2023-01-13T16:36:18.275Z,4.93
2023-01-13T16:38:44.653Z,8.57
2023-01-13T16:41:11.065Z,7.40
2023-01-13T16:43:37.765Z,6.70
2023-01-13T16:46:24.607Z,5.20
2023-01-13T16:48:53.069Z,4.50
2023-01-13T16:51:21.101Z,6.20
2023-01-13T16:53:47.934Z,4.23
2023-01-13T16:56:22.307Z,5.07
2023-01-13T16:58:49.191Z,5.23
2023-01-13T17:01:21.533Z,5.27
2023-01-13T17:03:49.275Z,2.63
2023-01-13T17:06:17.381Z,10.13
2023-01-13T17:08:43.775Z,5.47
2023-01-13T17:11:10.213Z,3.23
2023-01-13T17:13:36.953Z,7.90
2023-01-13T17:16:03.382Z,4.30
2023-01-13T17:18:29.856Z,6.80
2023-01-13T17:20:58.013Z,5.10
2023-01-13T17:23:24.891Z,5.63
2023-01-13T17:25:54.658Z,8.53
2023-01-13T17:28:21.184Z,4.03
2023-01-13T17:30:47.905Z,4.57
2023-01-13T17:33:14.293Z,6.53
2023-01-13T17:35:40.737Z,2.27
2023-01-13T17:38:07.336Z,4.73
2023-01-13T17:40:33.723Z,9.70
2023-01-13T17:43:00.090Z,6.47
2023-01-13T17:45:26.793Z,5.93
2023-01-13T17:47:57.882Z,5.93
2023-01-13T17:50:24.643Z,3.87
2023-01-13T17:52:51.004Z,3.00
2023-01-13T17:55:17.338Z,5.93
2023-01-13T17:57:43.699Z,14.37
2023-01-13T18:00:12.064Z,3.93
2023-01-13T18:02:38.496Z,4.20
2023-01-13T18:05:05.132Z,2.27
2023-01-13T18:07:31.505Z,6.10
2023-01-13T18:09:57.826Z,9.20
2023-01-13T18:12:24.281Z,6.30
2023-01-13T18:14:50.606Z,4.10
2023-01-13T18:17:18.309Z,12.70
2023-01-13T18:20:03.366Z,7.33
2023-01-13T18:22:48.018Z,10.07
2023-01-13T18:25:32.914Z,9.47
2023-01-13T18:28:02.462Z,3.03
2023-01-13T18:30:28.821Z,4.70
2023-01-13T18:32:55.744Z,7.00
2023-01-13T18:35:22.097Z,3.20
2023-01-13T18:37:48.508Z,8.50
2023-01-13T18:40:14.880Z,11.87
2023-01-13T18:42:58.328Z,6.83
2023-01-13T18:45:27.453Z,3.30
2023-01-13T18:47:55.634Z,6.63
2023-01-13T18:50:22.984Z,3.37
2023-01-13T18:52:49.645Z,3.93
2023-01-13T18:55:16.121Z,5.83
2023-01-13T18:57:42.642Z,5.67
2023-01-13T19:00:15.757Z,3.57
2023-01-13T19:02:42.574Z,2.40
2023-01-13T19:05:09.927Z,2.30
2023-01-13T19:07:36.793Z,4.23
2023-01-13T19:10:04.573Z,6.17
2023-01-13T19:12:33.662Z,7.03
2023-01-13T19:15:01.780Z,9.23
2023-01-13T19:17:33.474Z,11.30
2023-01-13T19:20:00.481Z,2.53
2023-01-13T19:22:30.479Z,4.60
2023-01-13T19:24:57.791Z,9.23
2023-01-13T19:27:25.321Z,10.37
2023-01-13T19:29:53.592Z,2.83
2023-01-13T19:32:22.014Z,1.90
2023-01-13T19:34:50.623Z,2.80
2023-01-13T19:37:17.386Z,6.20
2023-01-13T19:39:43.794Z,9.83
2023-01-13T19:42:30.531Z,6.40
2023-01-13T19:45:16.435Z,7.87
2023-01-13T19:47:45.267Z,4.10
2023-01-13T19:50:13.517Z,2.77
2023-01-13T19:52:40.103Z,9.80
2023-01-13T19:55:06.848Z,8.60
2023-01-13T19:57:33.219Z,6.50
2023-01-13T19:59:59.544Z,5.40
2023-01-13T20:02:31.342Z,5.90
2023-01-13T20:05:00.657Z,3.67
2023-01-13T20:07:29.193Z,10.43
2023-01-13T20:09:58.766Z,4.30
2023-01-13T20:12:26.124Z,3.10
2023-01-13T20:14:52.815Z,5.80
2023-01-13T20:17:21.235Z,3.30
2023-01-13T20:19:47.814Z,5.83
2023-01-13T20:22:14.549Z,4.30
2023-01-13T20:24:40.950Z,2.90
2023-01-13T20:27:08.071Z,4.53
2023-01-13T20:29:34.974Z,3.43
2023-01-13T20:32:01.395Z,4.37
2023-01-13T20:34:27.876Z,3.17
2023-01-13T20:36:54.397Z,4.10
2023-01-13T20:39:24.801Z,3.10
2023-01-13T20:42:09.480Z,5.70
2023-01-13T20:44:35.796Z,2.73
2023-01-13T20:47:02.796Z,10.77
2023-01-13T20:49:38.387Z,7.80
2023-01-13T20:52:09.797Z,4.13
2023-01-13T20:54:37.550Z,4.80
2023-01-13T20:57:05.199Z,5.67
2023-01-13T20:59:31.638Z,5.60
2023-01-13T21:01:58.567Z,7.70
2023-01-13T21:04:25.527Z,11.30
2023-01-13T21:06:52.282Z,2.27
2023-01-13T21:09:19.075Z,4.73
2023-01-13T21:12:03.866Z,5.30
2023-01-13T21:14:48.578Z,7.50
2023-01-13T21:17:34.436Z,6.73
2023-01-13T21:20:01.630Z,3.17
2023-01-13T21:22:28.728Z,6.10
2023-01-13T21:24:55.524Z,6.30
2023-01-13T21:27:21.957Z,3.83
2023-01-13T21:29:48.288Z,16.70
2023-01-13T21:32:14.615Z,2.13
2023-01-13T21:34:41.081Z,4.30
2023-01-13T21:37:07.615Z,6.53
2023-01-13T21:39:34.015Z,3.23
2023-01-13T21:42:18.676Z,6.47
2023-01-13T21:45:03.377Z,9.10
2023-01-13T21:47:48.239Z,7.47
2023-01-13T21:50:28.547Z,5.93
2023-01-13T21:52:55.880Z,4.27
2023-01-13T21:55:25.297Z,4.93
2023-01-13T21:58:11.694Z,8.80
2023-01-13T22:00:39.366Z,5.53
2023-01-13T22:03:07.174Z,3.80
2023-01-13T22:05:33.749Z,10.13
2023-01-13T22:08:00.636Z,3.33
2023-01-13T22:10:29.812Z,5.77
2023-01-13T22:12:58.629Z,5.17
2023-01-13T22:15:27.983Z,7.27
2023-01-13T22:17:55.445Z,7.50
2023-01-13T22:20:22.357Z,14.43
2023-01-13T22:22:49.644Z,8.83
2023-01-13T22:25:17.009Z,4.97
2023-01-13T22:27:44.648Z,10.73
2023-01-13T22:30:14.096Z,10.00
2023-01-13T22:32:40.539Z,11.37
2023-01-13T22:35:09.210Z,6.03
2023-01-13T22:37:36.125Z,6.80
2023-01-13T22:40:04.203Z,8.80
2023-01-13T22:42:30.547Z,8.90
2023-01-13T22:44:56.905Z,5.70
2023-01-13T22:47:23.290Z,6.13
2023-01-13T22:49:49.691Z,7.43
2023-01-13T22:52:17.159Z,4.27
2023-01-13T22:54:43.945Z,8.87
2023-01-13T22:57:10.517Z,7.17
2023-01-13T22:59:36.942Z,7.50
2023-01-13T23:02:03.348Z,8.17
2023-01-13T23:04:29.786Z,4.23
2023-01-13T23:06:56.230Z,10.47
2023-01-13T23:09:22.723Z,7.67
2023-01-13T23:11:49.070Z,8.73
2023-01-13T23:14:15.495Z,4.53
2023-01-13T23:16:41.937Z,6.17
2023-01-13T23:19:08.388Z,5.40
2023-01-13T23:21:37.359Z,14.00
2023-01-13T23:24:05.896Z,6.03
2023-01-13T23:26:33.363Z,10.33
2023-01-13T23:29:06.353Z,10.23
2023-01-13T23:31:32.957Z,6.00
2023-01-13T23:33:59.484Z,11.67
2023-01-13T23:36:27.783Z,5.10
2023-01-13T23:38:54.629Z,7.00
2023-01-13T23:41:25.629Z,7.70
2023-01-13T23:43:54.078Z,14.30
2023-01-13T23:46:20.782Z,11.80
2023-01-13T23:48:47.788Z,5.20
2023-01-13T23:51:14.755Z,7.07
2023-01-13T23:53:44.501Z,11.27
2023-01-13T23:56:16.543Z,11.87
2023-01-13T23:58:43.772Z,8.60
